sensor_id;sensor_type;location;lat;lon;timestamp;temperature;humidity
2839;DHT22;1427;48.510;9.060;2023-05-14T00:01:46;11.80;99.90
2839;DHT22;1427;48.510;9.060;2023-05-14T00:04:14;11.90;99.90
2839;DHT22;1427;48.510;9.060;2023-05-14T00:06:43;11.80;99.90
2839;DHT22;1427;48.510;9.060;2023-05-14T00:09:11;11.70;99.90
2839;DHT22;1427;48.510;9.060;2023-05-14T00:11:39;11.70;99.90
2839;DHT22;1427;48.510;9.060;2023-05-14T00:14:07;11.60;99.90
2839;DHT22;1427;48.510;9.060;2023-05-14T00:16:35;11.50;99.90
2839;DHT22;1427;48.510;9.060;2023-05-14T00:19:03;11.60;99.90
2839;DHT22;1427;48.510;9.060;2023-05-14T00:21:32;11.60;99.90
2839;DHT22;1427;48.510;9.060;2023-05-14T00:24:01;11.70;99.90
2839;DHT22;1427;48.510;9.060;2023-05-14T00:26:29;11.70;99.90
2839;DHT22;1427;48.510;9.060;2023-05-14T00:28:57;11.70;99.90
2839;DHT22;1427;48.510;9.060;2023-05-14T00:31:25;11.70;99.90
2839;DHT22;1427;48.510;9.060;2023-05-14T00:33:53;11.60;99.90
2839;DHT22;1427;48.510;9.060;2023-05-14T00:36:21;11.60;99.90
2839;DHT22;1427;48.510;9.060;2023-05-14T00:38:49;11.60;99.90
2839;DHT22;1427;48.510;9.060;2023-05-14T00:41:18;11.60;99.90
2839;DHT22;1427;48.510;9.060;2023-05-14T00:43:47;11.60;99.90
2839;DHT22;1427;48.510;9.060;2023-05-14T00:46:15;11.60;99.90
2839;DHT22;1427;48.510;9.060;2023-05-14T00:48:44;11.70;99.90
2839;DHT22;1427;48.510;9.060;2023-05-14T00:51:12;11.70;99.90
2839;DHT22;1427;48.510;9.060;2023-05-14T00:53:40;11.70;99.90
2839;DHT22;1427;48.510;9.060;2023-05-14T00:56:09;11.60;99.90
2839;DHT22;1427;48.510;9.060;2023-05-14T00:58:38;11.60;99.90
2839;DHT22;1427;48.510;9.060;2023-05-14T01:01:07;11.50;99.90
2839;DHT22;1427;48.510;9.060;2023-05-14T01:03:35;11.60;99.90
2839;DHT22;1427;48.510;9.060;2023-05-14T01:06:08;11.60;99.90
2839;DHT22;1427;48.510;9.060;2023-05-14T01:08:44;11.60;99.90
2839;DHT22;1427;48.510;9.060;2023-05-14T01:11:18;11.60;99.90
2839;DHT22;1427;48.510;9.060;2023-05-14T01:13:55;11.60;99.90
2839;DHT22;1427;48.510;9.060;2023-05-14T01:16:42;11.50;99.90
2839;DHT22;1427;48.510;9.060;2023-05-14T01:19:20;11.50;99.90
2839;DHT22;1427;48.510;9.060;2023-05-14T01:21:50;11.50;99.90
2839;DHT22;1427;48.510;9.060;2023-05-14T01:24:18;11.50;99.90
2839;DHT22;1427;48.510;9.060;2023-05-14T01:26:46;11.40;99.90
2839;DHT22;1427;48.510;9.060;2023-05-14T01:29:17;11.40;99.90
2839;DHT22;1427;48.510;9.060;2023-05-14T01:31:47;11.40;99.90
2839;DHT22;1427;48.510;9.060;2023-05-14T01:34:20;11.50;99.90
2839;DHT22;1427;48.510;9.060;2023-05-14T01:36:51;11.40;99.90
2839;DHT22;1427;48.510;9.060;2023-05-14T01:39:20;11.40;99.90
2839;DHT22;1427;48.510;9.060;2023-05-14T01:41:50;11.40;99.90
2839;DHT22;1427;48.510;9.060;2023-05-14T01:44:19;11.30;99.90
2839;DHT22;1427;48.510;9.060;2023-05-14T01:46:48;11.30;99.90
2839;DHT22;1427;48.510;9.060;2023-05-14T01:49:16;11.30;99.90
2839;DHT22;1427;48.510;9.060;2023-05-14T01:51:45;11.30;99.90
2839;DHT22;1427;48.510;9.060;2023-05-14T01:54:14;11.20;99.90
2839;DHT22;1427;48.510;9.060;2023-05-14T01:56:42;11.20;99.90
2839;DHT22;1427;48.510;9.060;2023-05-14T01:59:10;11.20;99.90
2839;DHT22;1427;48.510;9.060;2023-05-14T02:01:38;11.20;99.90
2839;DHT22;1427;48.510;9.060;2023-05-14T02:04:07;11.30;99.90
2839;DHT22;1427;48.510;9.060;2023-05-14T02:06:35;11.20;99.90
2839;DHT22;1427;48.510;9.060;2023-05-14T02:09:04;11.20;99.90
2839;DHT22;1427;48.510;9.060;2023-05-14T02:11:33;11.20;99.90
2839;DHT22;1427;48.510;9.060;2023-05-14T02:14:01;11.20;99.90
2839;DHT22;1427;48.510;9.060;2023-05-14T02:16:29;11.20;99.90
2839;DHT22;1427;48.510;9.060;2023-05-14T02:18:57;11.20;99.90
2839;DHT22;1427;48.510;9.060;2023-05-14T02:21:26;11.30;99.90
2839;DHT22;1427;48.510;9.060;2023-05-14T02:23:54;11.20;99.90
2839;DHT22;1427;48.510;9.060;2023-05-14T02:26:22;11.30;99.90
2839;DHT22;1427;48.510;9.060;2023-05-14T02:28:51;11.20;99.90
2839;DHT22;1427;48.510;9.060;2023-05-14T02:31:19;11.20;99.90
2839;DHT22;1427;48.510;9.060;2023-05-14T02:33:47;11.30;99.90
2839;DHT22;1427;48.510;9.060;2023-05-14T02:36:15;11.30;99.90
2839;DHT22;1427;48.510;9.060;2023-05-14T02:38:43;11.40;99.90
2839;DHT22;1427;48.510;9.060;2023-05-14T02:41:11;11.40;99.90
2839;DHT22;1427;48.510;9.060;2023-05-14T02:43:39;11.30;99.90
2839;DHT22;1427;48.510;9.060;2023-05-14T02:46:09;11.30;99.90
2839;DHT22;1427;48.510;9.060;2023-05-14T02:48:37;11.20;99.90
2839;DHT22;1427;48.510;9.060;2023-05-14T02:51:06;11.20;99.90
2839;DHT22;1427;48.510;9.060;2023-05-14T02:53:34;11.20;99.90
2839;DHT22;1427;48.510;9.060;2023-05-14T02:56:02;11.20;99.90
2839;DHT22;1427;48.510;9.060;2023-05-14T02:58:30;11.20;99.90
2839;DHT22;1427;48.510;9.060;2023-05-14T03:00:58;11.20;99.90
2839;DHT22;1427;48.510;9.060;2023-05-14T03:03:29;11.20;99.90
2839;DHT22;1427;48.510;9.060;2023-05-14T03:05:58;11.20;99.90
2839;DHT22;1427;48.510;9.060;2023-05-14T03:08:26;11.30;99.90
2839;DHT22;1427;48.510;9.060;2023-05-14T03:10:54;11.20;99.90
2839;DHT22;1427;48.510;9.060;2023-05-14T03:13:22;11.20;99.90
2839;DHT22;1427;48.510;9.060;2023-05-14T03:15:51;11.20;99.90
2839;DHT22;1427;48.510;9.060;2023-05-14T03:18:20;11.20;99.90
2839;DHT22;1427;48.510;9.060;2023-05-14T03:20:50;11.20;99.90
2839;DHT22;1427;48.510;9.060;2023-05-14T03:23:18;11.20;99.90
2839;DHT22;1427;48.510;9.060;2023-05-14T03:25:46;11.20;99.90
2839;DHT22;1427;48.510;9.060;2023-05-14T03:28:14;11.20;99.90
2839;DHT22;1427;48.510;9.060;2023-05-14T03:30:42;11.20;99.90
2839;DHT22;1427;48.510;9.060;2023-05-14T03:33:10;11.20;99.90
2839;DHT22;1427;48.510;9.060;2023-05-14T03:35:39;11.20;99.90
2839;DHT22;1427;48.510;9.060;2023-05-14T03:38:08;11.30;99.90
2839;DHT22;1427;48.510;9.060;2023-05-14T03:40:36;11.40;99.90
2839;DHT22;1427;48.510;9.060;2023-05-14T03:43:04;11.50;99.90
2839;DHT22;1427;48.510;9.060;2023-05-14T03:45:32;11.60;99.90
2839;DHT22;1427;48.510;9.060;2023-05-14T03:48:00;11.60;99.90
2839;DHT22;1427;48.510;9.060;2023-05-14T03:50:29;11.70;99.90
2839;DHT22;1427;48.510;9.060;2023-05-14T03:52:57;11.60;99.90
2839;DHT22;1427;48.510;9.060;2023-05-14T03:55:26;11.50;99.90
2839;DHT22;1427;48.510;9.060;2023-05-14T03:57:54;11.50;99.90
2839;DHT22;1427;48.510;9.060;2023-05-14T04:00:22;11.60;99.90
2839;DHT22;1427;48.510;9.060;2023-05-14T04:02:51;11.60;99.90
2839;DHT22;1427;48.510;9.060;2023-05-14T04:05:19;11.60;99.90
2839;DHT22;1427;48.510;9.060;2023-05-14T04:07:47;11.50;99.90
2839;DHT22;1427;48.510;9.060;2023-05-14T04:10:15;11.60;99.90
2839;DHT22;1427;48.510;9.060;2023-05-14T04:12:45;11.50;99.90
2839;DHT22;1427;48.510;9.060;2023-05-14T04:15:13;11.50;99.90
2839;DHT22;1427;48.510;9.060;2023-05-14T04:17:41;11.60;99.90
2839;DHT22;1427;48.510;9.060;2023-05-14T04:20:10;11.50;99.90
2839;DHT22;1427;48.510;9.060;2023-05-14T04:22:38;11.50;99.90
2839;DHT22;1427;48.510;9.060;2023-05-14T04:25:06;11.60;99.90
2839;DHT22;1427;48.510;9.060;2023-05-14T04:27:34;11.50;99.90
2839;DHT22;1427;48.510;9.060;2023-05-14T04:30:06;11.60;99.90
2839;DHT22;1427;48.510;9.060;2023-05-14T04:32:34;11.70;99.90
2839;DHT22;1427;48.510;9.060;2023-05-14T04:35:02;11.60;99.90
2839;DHT22;1427;48.510;9.060;2023-05-14T04:37:31;11.60;99.90
2839;DHT22;1427;48.510;9.060;2023-05-14T04:39:59;11.50;99.90
2839;DHT22;1427;48.510;9.060;2023-05-14T04:42:27;11.50;99.90
2839;DHT22;1427;48.510;9.060;2023-05-14T04:44:55;11.50;99.90
2839;DHT22;1427;48.510;9.060;2023-05-14T04:47:24;11.60;99.90
2839;DHT22;1427;48.510;9.060;2023-05-14T04:49:53;11.60;99.90
2839;DHT22;1427;48.510;9.060;2023-05-14T04:52:21;11.60;99.90
2839;DHT22;1427;48.510;9.060;2023-05-14T04:54:49;11.70;99.90
2839;DHT22;1427;48.510;9.060;2023-05-14T04:57:17;11.90;99.90
2839;DHT22;1427;48.510;9.060;2023-05-14T04:59:45;11.90;99.90
2839;DHT22;1427;48.510;9.060;2023-05-14T05:02:13;11.80;99.90
2839;DHT22;1427;48.510;9.060;2023-05-14T05:04:43;11.70;99.90
2839;DHT22;1427;48.510;9.060;2023-05-14T05:07:11;11.70;99.90
2839;DHT22;1427;48.510;9.060;2023-05-14T05:09:41;11.70;99.90
2839;DHT22;1427;48.510;9.060;2023-05-14T05:12:09;11.60;99.90
2839;DHT22;1427;48.510;9.060;2023-05-14T05:14:37;11.60;99.90
2839;DHT22;1427;48.510;9.060;2023-05-14T05:17:05;11.60;99.90
2839;DHT22;1427;48.510;9.060;2023-05-14T05:19:33;11.70;99.90
2839;DHT22;1427;48.510;9.060;2023-05-14T05:22:11;11.80;99.90
2839;DHT22;1427;48.510;9.060;2023-05-14T05:24:39;11.80;99.90
2839;DHT22;1427;48.510;9.060;2023-05-14T05:27:07;11.80;99.90
2839;DHT22;1427;48.510;9.060;2023-05-14T05:29:35;11.90;99.90
2839;DHT22;1427;48.510;9.060;2023-05-14T05:32:04;11.90;99.90
2839;DHT22;1427;48.510;9.060;2023-05-14T05:34:33;11.90;99.90
2839;DHT22;1427;48.510;9.060;2023-05-14T05:37:01;12.00;99.90
2839;DHT22;1427;48.510;9.060;2023-05-14T05:39:32;12.10;99.90
2839;DHT22;1427;48.510;9.060;2023-05-14T05:42:01;12.20;99.90
2839;DHT22;1427;48.510;9.060;2023-05-14T05:44:29;12.20;99.90
2839;DHT22;1427;48.510;9.060;2023-05-14T05:46:57;12.10;99.90
2839;DHT22;1427;48.510;9.060;2023-05-14T05:49:25;12.20;99.90
2839;DHT22;1427;48.510;9.060;2023-05-14T05:51:53;12.10;99.90
2839;DHT22;1427;48.510;9.060;2023-05-14T05:54:22;12.10;99.90
2839;DHT22;1427;48.510;9.060;2023-05-14T05:56:52;12.10;99.90
2839;DHT22;1427;48.510;9.060;2023-05-14T05:59:20;12.10;99.90
2839;DHT22;1427;48.510;9.060;2023-05-14T06:01:48;12.10;99.90
2839;DHT22;1427;48.510;9.060;2023-05-14T06:04:17;12.20;99.90
2839;DHT22;1427;48.510;9.060;2023-05-14T06:06:45;12.20;99.90
2839;DHT22;1427;48.510;9.060;2023-05-14T06:09:13;12.30;99.90
2839;DHT22;1427;48.510;9.060;2023-05-14T06:11:41;12.30;99.90
2839;DHT22;1427;48.510;9.060;2023-05-14T06:14:11;12.40;99.90
2839;DHT22;1427;48.510;9.060;2023-05-14T06:16:39;12.40;99.90
2839;DHT22;1427;48.510;9.060;2023-05-14T06:19:07;12.40;99.90
2839;DHT22;1427;48.510;9.060;2023-05-14T06:21:35;12.40;99.90
2839;DHT22;1427;48.510;9.060;2023-05-14T06:24:04;12.50;99.90
2839;DHT22;1427;48.510;9.060;2023-05-14T06:26:32;12.50;99.90
2839;DHT22;1427;48.510;9.060;2023-05-14T06:29:00;12.50;99.90
2839;DHT22;1427;48.510;9.060;2023-05-14T06:31:30;12.60;99.90
2839;DHT22;1427;48.510;9.060;2023-05-14T06:33:58;12.60;99.90
2839;DHT22;1427;48.510;9.060;2023-05-14T06:36:26;12.50;99.90
2839;DHT22;1427;48.510;9.060;2023-05-14T06:38:54;12.50;99.90
2839;DHT22;1427;48.510;9.060;2023-05-14T06:41:22;12.50;99.90
2839;DHT22;1427;48.510;9.060;2023-05-14T06:43:50;12.50;99.90
2839;DHT22;1427;48.510;9.060;2023-05-14T06:46:18;12.50;99.90
2839;DHT22;1427;48.510;9.060;2023-05-14T06:48:48;12.50;99.90
2839;DHT22;1427;48.510;9.060;2023-05-14T06:51:16;12.50;99.90
2839;DHT22;1427;48.510;9.060;2023-05-14T06:53:44;12.50;99.90
2839;DHT22;1427;48.510;9.060;2023-05-14T06:56:12;12.50;99.90
2839;DHT22;1427;48.510;9.060;2023-05-14T06:58:40;12.60;99.90
2839;DHT22;1427;48.510;9.060;2023-05-14T07:01:08;12.60;99.90
2839;DHT22;1427;48.510;9.060;2023-05-14T07:03:36;12.60;99.90
2839;DHT22;1427;48.510;9.060;2023-05-14T07:06:06;12.70;99.90
2839;DHT22;1427;48.510;9.060;2023-05-14T07:08:34;12.70;99.90
2839;DHT22;1427;48.510;9.060;2023-05-14T07:11:02;12.60;99.90
2839;DHT22;1427;48.510;9.060;2023-05-14T07:13:30;12.60;99.90
2839;DHT22;1427;48.510;9.060;2023-05-14T07:15:59;12.80;99.90
2839;DHT22;1427;48.510;9.060;2023-05-14T07:18:27;12.80;99.90
2839;DHT22;1427;48.510;9.060;2023-05-14T07:20:55;12.80;99.90
2839;DHT22;1427;48.510;9.060;2023-05-14T07:23:24;12.90;99.90
2839;DHT22;1427;48.510;9.060;2023-05-14T07:25:52;12.90;99.90
2839;DHT22;1427;48.510;9.060;2023-05-14T07:28:20;12.80;99.90
2839;DHT22;1427;48.510;9.060;2023-05-14T07:30:48;12.90;99.90
2839;DHT22;1427;48.510;9.060;2023-05-14T07:33:17;12.90;99.90
2839;DHT22;1427;48.510;9.060;2023-05-14T07:35:45;12.90;99.90
2839;DHT22;1427;48.510;9.060;2023-05-14T07:38:13;12.90;99.90
2839;DHT22;1427;48.510;9.060;2023-05-14T07:40:42;12.90;99.90
2839;DHT22;1427;48.510;9.060;2023-05-14T07:43:11;12.90;99.90
2839;DHT22;1427;48.510;9.060;2023-05-14T07:45:39;12.90;99.90
2839;DHT22;1427;48.510;9.060;2023-05-14T07:48:07;13.00;99.90
2839;DHT22;1427;48.510;9.060;2023-05-14T07:50:35;13.00;99.90
2839;DHT22;1427;48.510;9.060;2023-05-14T07:53:03;13.00;99.90
2839;DHT22;1427;48.510;9.060;2023-05-14T07:55:31;12.90;99.90
2839;DHT22;1427;48.510;9.060;2023-05-14T07:58:01;12.90;99.90
2839;DHT22;1427;48.510;9.060;2023-05-14T08:00:29;12.90;99.90
2839;DHT22;1427;48.510;9.060;2023-05-14T08:02:57;12.90;99.90
2839;DHT22;1427;48.510;9.060;2023-05-14T08:05:26;13.00;99.90
2839;DHT22;1427;48.510;9.060;2023-05-14T08:07:54;13.00;99.90
2839;DHT22;1427;48.510;9.060;2023-05-14T08:10:22;12.90;99.90
2839;DHT22;1427;48.510;9.060;2023-05-14T08:12:51;13.00;99.90
2839;DHT22;1427;48.510;9.060;2023-05-14T08:15:20;13.00;99.90
2839;DHT22;1427;48.510;9.060;2023-05-14T08:17:50;13.20;99.90
2839;DHT22;1427;48.510;9.060;2023-05-14T08:20:18;13.10;99.90
2839;DHT22;1427;48.510;9.060;2023-05-14T08:22:46;13.20;99.90
2839;DHT22;1427;48.510;9.060;2023-05-14T08:25:14;13.30;99.90
2839;DHT22;1427;48.510;9.060;2023-05-14T08:27:42;13.40;99.90
2839;DHT22;1427;48.510;9.060;2023-05-14T08:30:11;13.50;99.90
2839;DHT22;1427;48.510;9.060;2023-05-14T08:32:40;13.50;99.90
2839;DHT22;1427;48.510;9.060;2023-05-14T08:35:09;13.60;99.90
2839;DHT22;1427;48.510;9.060;2023-05-14T08:37:37;13.70;99.90
2839;DHT22;1427;48.510;9.060;2023-05-14T08:40:07;13.80;99.90
2839;DHT22;1427;48.510;9.060;2023-05-14T08:42:37;14.00;99.90
2839;DHT22;1427;48.510;9.060;2023-05-14T08:45:12;14.10;99.90
2839;DHT22;1427;48.510;9.060;2023-05-14T08:47:43;14.20;99.90
2839;DHT22;1427;48.510;9.060;2023-05-14T08:50:14;14.30;99.90
2839;DHT22;1427;48.510;9.060;2023-05-14T08:52:42;14.50;99.90
2839;DHT22;1427;48.510;9.060;2023-05-14T08:55:11;14.60;99.90
2839;DHT22;1427;48.510;9.060;2023-05-14T08:57:39;14.70;99.90
2839;DHT22;1427;48.510;9.060;2023-05-14T09:00:08;14.80;99.90
2839;DHT22;1427;48.510;9.060;2023-05-14T09:02:39;15.00;99.90
2839;DHT22;1427;48.510;9.060;2023-05-14T09:05:09;15.10;99.90
2839;DHT22;1427;48.510;9.060;2023-05-14T09:07:38;15.00;99.90
2839;DHT22;1427;48.510;9.060;2023-05-14T09:10:07;15.10;99.90
2839;DHT22;1427;48.510;9.060;2023-05-14T09:12:36;15.20;99.90
2839;DHT22;1427;48.510;9.060;2023-05-14T09:15:05;15.10;99.90
2839;DHT22;1427;48.510;9.060;2023-05-14T09:17:33;15.10;99.90
2839;DHT22;1427;48.510;9.060;2023-05-14T09:20:02;15.10;99.90
2839;DHT22;1427;48.510;9.060;2023-05-14T09:22:33;14.80;99.90
2839;DHT22;1427;48.510;9.060;2023-05-14T09:25:03;14.70;99.90
2839;DHT22;1427;48.510;9.060;2023-05-14T09:27:32;14.60;99.90
2839;DHT22;1427;48.510;9.060;2023-05-14T09:30:05;14.70;99.90
2839;DHT22;1427;48.510;9.060;2023-05-14T09:32:37;14.90;99.90
2839;DHT22;1427;48.510;9.060;2023-05-14T09:35:13;15.20;99.90
2839;DHT22;1427;48.510;9.060;2023-05-14T09:37:47;15.50;99.90
2839;DHT22;1427;48.510;9.060;2023-05-14T09:40:17;15.90;99.90
2839;DHT22;1427;48.510;9.060;2023-05-14T09:42:45;16.10;99.90
2839;DHT22;1427;48.510;9.060;2023-05-14T09:45:14;16.40;99.90
2839;DHT22;1427;48.510;9.060;2023-05-14T09:47:42;16.60;99.90
2839;DHT22;1427;48.510;9.060;2023-05-14T09:50:11;16.30;99.90
2839;DHT22;1427;48.510;9.060;2023-05-14T09:52:39;16.40;99.90
2839;DHT22;1427;48.510;9.060;2023-05-14T09:55:09;16.60;99.90
2839;DHT22;1427;48.510;9.060;2023-05-14T09:57:37;16.80;99.90
2839;DHT22;1427;48.510;9.060;2023-05-14T10:00:06;17.00;99.90
2839;DHT22;1427;48.510;9.060;2023-05-14T10:02:36;17.10;99.90
2839;DHT22;1427;48.510;9.060;2023-05-14T10:05:07;17.20;99.90
2839;DHT22;1427;48.510;9.060;2023-05-14T10:07:40;17.40;99.90
2839;DHT22;1427;48.510;9.060;2023-05-14T10:10:14;17.60;99.90
2839;DHT22;1427;48.510;9.060;2023-05-14T10:12:47;17.80;99.90
2839;DHT22;1427;48.510;9.060;2023-05-14T10:15:20;17.90;99.90
2839;DHT22;1427;48.510;9.060;2023-05-14T10:17:55;17.90;99.90
2839;DHT22;1427;48.510;9.060;2023-05-14T10:20:26;17.80;99.90
2839;DHT22;1427;48.510;9.060;2023-05-14T10:22:55;17.80;99.90
2839;DHT22;1427;48.510;9.060;2023-05-14T10:25:25;17.90;99.90
2839;DHT22;1427;48.510;9.060;2023-05-14T10:27:53;17.90;99.90
2839;DHT22;1427;48.510;9.060;2023-05-14T10:30:21;17.90;99.90
2839;DHT22;1427;48.510;9.060;2023-05-14T10:33:05;17.90;99.90
2839;DHT22;1427;48.510;9.060;2023-05-14T10:35:59;18.20;99.90
2839;DHT22;1427;48.510;9.060;2023-05-14T10:38:27;18.50;99.90
2839;DHT22;1427;48.510;9.060;2023-05-14T10:40:58;18.60;99.90
2839;DHT22;1427;48.510;9.060;2023-05-14T10:43:27;19.00;99.90
2839;DHT22;1427;48.510;9.060;2023-05-14T10:45:57;19.00;99.90
2839;DHT22;1427;48.510;9.060;2023-05-14T10:48:26;18.80;99.90
2839;DHT22;1427;48.510;9.060;2023-05-14T10:50:55;19.00;99.90
2839;DHT22;1427;48.510;9.060;2023-05-14T10:53:32;19.40;99.90
2839;DHT22;1427;48.510;9.060;2023-05-14T10:56:06;20.00;99.90
2839;DHT22;1427;48.510;9.060;2023-05-14T10:58:35;20.10;99.90
2839;DHT22;1427;48.510;9.060;2023-05-14T11:01:05;20.10;99.90
2839;DHT22;1427;48.510;9.060;2023-05-14T11:03:38;20.10;99.90
2839;DHT22;1427;48.510;9.060;2023-05-14T11:06:08;20.20;99.90
2839;DHT22;1427;48.510;9.060;2023-05-14T11:08:37;20.20;99.90
2839;DHT22;1427;48.510;9.060;2023-05-14T11:11:08;20.20;99.90
2839;DHT22;1427;48.510;9.060;2023-05-14T11:13:37;20.20;99.90
2839;DHT22;1427;48.510;9.060;2023-05-14T11:16:05;20.20;99.90
2839;DHT22;1427;48.510;9.060;2023-05-14T11:18:52;20.50;99.90
2839;DHT22;1427;48.510;9.060;2023-05-14T11:21:27;20.80;99.90
2839;DHT22;1427;48.510;9.060;2023-05-14T11:23:55;20.80;99.90
2839;DHT22;1427;48.510;9.060;2023-05-14T11:26:25;20.70;99.90
2839;DHT22;1427;48.510;9.060;2023-05-14T11:28:53;20.60;99.90
2839;DHT22;1427;48.510;9.060;2023-05-14T11:31:22;20.20;99.90
2839;DHT22;1427;48.510;9.060;2023-05-14T11:33:52;19.80;99.90
2839;DHT22;1427;48.510;9.060;2023-05-14T11:36:20;19.90;99.90
2839;DHT22;1427;48.510;9.060;2023-05-14T11:38:48;19.80;99.90
2839;DHT22;1427;48.510;9.060;2023-05-14T11:41:18;19.90;99.90
2839;DHT22;1427;48.510;9.060;2023-05-14T11:43:50;20.10;99.90
2839;DHT22;1427;48.510;9.060;2023-05-14T11:46:18;20.40;99.90
2839;DHT22;1427;48.510;9.060;2023-05-14T11:48:47;20.40;99.90
2839;DHT22;1427;48.510;9.060;2023-05-14T11:51:15;20.50;99.90
2839;DHT22;1427;48.510;9.060;2023-05-14T11:53:44;20.70;99.90
2839;DHT22;1427;48.510;9.060;2023-05-14T11:56:12;20.80;99.90
2839;DHT22;1427;48.510;9.060;2023-05-14T11:58:45;20.50;99.90
2839;DHT22;1427;48.510;9.060;2023-05-14T12:01:15;20.20;99.90
2839;DHT22;1427;48.510;9.060;2023-05-14T12:03:43;20.10;99.90
2839;DHT22;1427;48.510;9.060;2023-05-14T12:06:11;20.20;99.90
2839;DHT22;1427;48.510;9.060;2023-05-14T12:08:39;20.40;99.90
2839;DHT22;1427;48.510;9.060;2023-05-14T12:11:08;20.50;99.90
2839;DHT22;1427;48.510;9.060;2023-05-14T12:13:36;20.60;99.90
2839;DHT22;1427;48.510;9.060;2023-05-14T12:16:04;20.80;99.90
2839;DHT22;1427;48.510;9.060;2023-05-14T12:18:34;20.70;99.90
2839;DHT22;1427;48.510;9.060;2023-05-14T12:21:03;20.70;99.90
2839;DHT22;1427;48.510;9.060;2023-05-14T12:23:33;20.60;99.90
2839;DHT22;1427;48.510;9.060;2023-05-14T12:26:02;20.40;99.90
2839;DHT22;1427;48.510;9.060;2023-05-14T12:28:32;20.60;99.90
2839;DHT22;1427;48.510;9.060;2023-05-14T12:31:04;20.90;99.90
2839;DHT22;1427;48.510;9.060;2023-05-14T12:33:33;20.80;99.90
2839;DHT22;1427;48.510;9.060;2023-05-14T12:36:01;20.90;99.90
2839;DHT22;1427;48.510;9.060;2023-05-14T12:38:47;20.90;99.90
2839;DHT22;1427;48.510;9.060;2023-05-14T12:41:16;20.90;99.90
2839;DHT22;1427;48.510;9.060;2023-05-14T12:43:46;20.80;99.90
2839;DHT22;1427;48.510;9.060;2023-05-14T12:46:15;20.60;99.90
2839;DHT22;1427;48.510;9.060;2023-05-14T12:48:44;20.70;99.90
2839;DHT22;1427;48.510;9.060;2023-05-14T12:51:13;20.80;99.90
2839;DHT22;1427;48.510;9.060;2023-05-14T12:53:41;21.10;99.90
2839;DHT22;1427;48.510;9.060;2023-05-14T12:56:10;21.40;99.90
2839;DHT22;1427;48.510;9.060;2023-05-14T12:58:38;21.50;99.90
2839;DHT22;1427;48.510;9.060;2023-05-14T13:01:06;21.10;99.60
2839;DHT22;1427;48.510;9.060;2023-05-14T13:03:34;20.90;99.90
2839;DHT22;1427;48.510;9.060;2023-05-14T13:06:04;20.30;99.90
2839;DHT22;1427;48.510;9.060;2023-05-14T13:08:32;20.10;99.90
2839;DHT22;1427;48.510;9.060;2023-05-14T13:11:00;20.10;99.90
2839;DHT22;1427;48.510;9.060;2023-05-14T13:13:28;20.10;99.90
2839;DHT22;1427;48.510;9.060;2023-05-14T13:15:57;19.80;99.90
2839;DHT22;1427;48.510;9.060;2023-05-14T13:18:25;19.60;99.90
2839;DHT22;1427;48.510;9.060;2023-05-14T13:20:53;19.40;99.90
2839;DHT22;1427;48.510;9.060;2023-05-14T13:23:23;19.10;99.90
2839;DHT22;1427;48.510;9.060;2023-05-14T13:25:51;18.90;99.90
2839;DHT22;1427;48.510;9.060;2023-05-14T13:28:19;18.70;99.90
2839;DHT22;1427;48.510;9.060;2023-05-14T13:31:04;18.80;99.90
2839;DHT22;1427;48.510;9.060;2023-05-14T13:33:34;18.60;99.90
2839;DHT22;1427;48.510;9.060;2023-05-14T13:36:03;18.60;99.90
2839;DHT22;1427;48.510;9.060;2023-05-14T13:38:33;18.60;99.90
2839;DHT22;1427;48.510;9.060;2023-05-14T13:41:01;18.60;99.90
2839;DHT22;1427;48.510;9.060;2023-05-14T13:43:30;18.40;99.90
2839;DHT22;1427;48.510;9.060;2023-05-14T13:45:58;18.40;99.90
2839;DHT22;1427;48.510;9.060;2023-05-14T13:48:27;18.50;99.90
2839;DHT22;1427;48.510;9.060;2023-05-14T13:50:56;18.50;99.90
2839;DHT22;1427;48.510;9.060;2023-05-14T13:53:25;18.70;99.90
2839;DHT22;1427;48.510;9.060;2023-05-14T13:55:54;18.80;99.90
2839;DHT22;1427;48.510;9.060;2023-05-14T13:58:24;18.90;99.90
2839;DHT22;1427;48.510;9.060;2023-05-14T14:00:53;19.00;99.90
2839;DHT22;1427;48.510;9.060;2023-05-14T14:03:21;19.20;99.90
2839;DHT22;1427;48.510;9.060;2023-05-14T14:05:50;19.40;99.90
2839;DHT22;1427;48.510;9.060;2023-05-14T14:08:18;19.60;99.90
2839;DHT22;1427;48.510;9.060;2023-05-14T14:10:50;19.60;99.90
2839;DHT22;1427;48.510;9.060;2023-05-14T14:13:21;19.60;99.90
2839;DHT22;1427;48.510;9.060;2023-05-14T14:15:50;19.40;99.90
2839;DHT22;1427;48.510;9.060;2023-05-14T14:18:18;19.30;99.90
2839;DHT22;1427;48.510;9.060;2023-05-14T14:20:46;19.10;99.90
2839;DHT22;1427;48.510;9.060;2023-05-14T14:23:14;18.90;99.90
2839;DHT22;1427;48.510;9.060;2023-05-14T14:25:43;18.70;99.90
2839;DHT22;1427;48.510;9.060;2023-05-14T14:28:11;18.70;99.90
2839;DHT22;1427;48.510;9.060;2023-05-14T14:30:40;18.70;99.90
2839;DHT22;1427;48.510;9.060;2023-05-14T14:33:09;18.80;99.90
2839;DHT22;1427;48.510;9.060;2023-05-14T14:35:38;18.80;99.90
2839;DHT22;1427;48.510;9.060;2023-05-14T14:38:06;18.70;99.90
2839;DHT22;1427;48.510;9.060;2023-05-14T14:40:34;18.50;99.90
2839;DHT22;1427;48.510;9.060;2023-05-14T14:43:02;18.20;99.90
2839;DHT22;1427;48.510;9.060;2023-05-14T14:45:30;17.80;99.90
2839;DHT22;1427;48.510;9.060;2023-05-14T14:48:22;17.70;99.90
2839;DHT22;1427;48.510;9.060;2023-05-14T14:50:50;17.70;99.90
2839;DHT22;1427;48.510;9.060;2023-05-14T14:53:19;17.50;99.90
2839;DHT22;1427;48.510;9.060;2023-05-14T14:55:47;17.50;99.90
2839;DHT22;1427;48.510;9.060;2023-05-14T14:58:17;17.10;99.90
2839;DHT22;1427;48.510;9.060;2023-05-14T15:00:45;16.80;99.90
2839;DHT22;1427;48.510;9.060;2023-05-14T15:03:14;16.30;99.90
2839;DHT22;1427;48.510;9.060;2023-05-14T15:05:44;16.10;99.90
2839;DHT22;1427;48.510;9.060;2023-05-14T15:08:12;16.20;99.90
2839;DHT22;1427;48.510;9.060;2023-05-14T15:10:40;16.20;99.90
2839;DHT22;1427;48.510;9.060;2023-05-14T15:13:08;16.40;99.90
2839;DHT22;1427;48.510;9.060;2023-05-14T15:15:37;16.20;99.90
2839;DHT22;1427;48.510;9.060;2023-05-14T15:18:05;16.20;99.90
2839;DHT22;1427;48.510;9.060;2023-05-14T15:20:33;16.20;99.90
2839;DHT22;1427;48.510;9.060;2023-05-14T15:23:03;16.10;99.90
2839;DHT22;1427;48.510;9.060;2023-05-14T15:25:31;16.00;99.90
2839;DHT22;1427;48.510;9.060;2023-05-14T15:27:59;15.90;99.90
2839;DHT22;1427;48.510;9.060;2023-05-14T15:30:27;15.90;99.90
2839;DHT22;1427;48.510;9.060;2023-05-14T15:32:55;15.70;99.90
2839;DHT22;1427;48.510;9.060;2023-05-14T15:35:23;15.70;99.90
2839;DHT22;1427;48.510;9.060;2023-05-14T15:37:54;15.80;99.90
2839;DHT22;1427;48.510;9.060;2023-05-14T15:40:25;15.80;99.90
2839;DHT22;1427;48.510;9.060;2023-05-14T15:42:54;15.70;99.90
2839;DHT22;1427;48.510;9.060;2023-05-14T15:45:22;15.70;99.90
2839;DHT22;1427;48.510;9.060;2023-05-14T15:47:50;15.70;99.90
2839;DHT22;1427;48.510;9.060;2023-05-14T15:50:18;15.70;99.90
2839;DHT22;1427;48.510;9.060;2023-05-14T15:52:47;15.70;99.90
2839;DHT22;1427;48.510;9.060;2023-05-14T15:55:15;15.80;99.90
2839;DHT22;1427;48.510;9.060;2023-05-14T15:57:45;15.80;99.90
2839;DHT22;1427;48.510;9.060;2023-05-14T16:00:13;15.70;99.90
2839;DHT22;1427;48.510;9.060;2023-05-14T16:02:42;15.80;99.90
2839;DHT22;1427;48.510;9.060;2023-05-14T16:05:10;15.90;99.90
2839;DHT22;1427;48.510;9.060;2023-05-14T16:07:38;15.90;99.90
2839;DHT22;1427;48.510;9.060;2023-05-14T16:10:07;16.00;99.90
2839;DHT22;1427;48.510;9.060;2023-05-14T16:12:35;16.10;99.90
2839;DHT22;1427;48.510;9.060;2023-05-14T16:15:05;16.10;99.90